Time,TemperatureF,DewpointF,PressureIn,WindDirection,WindDirectionDegrees,WindSpeedMPH,WindSpeedGustMPH,Humidity,HourlyPrecipIn,Conditions,Clouds,dailyrainin,SoftwareType,DateUTC
2013-01-02 00:00:00,48.6,46.6,30.05,North,6,0.0,1.0,93,0.00,-RA,,0.00,WeatherDisplay:10.37,2013-01-02 05:00:00,
2013-01-02 00:10:00,48.4,46.2,30.06,WNW,303,0.0,1.0,92,0.01,-RA,,0.01,WeatherDisplay:10.37,2013-01-02 05:10:00,
2013-01-02 00:20:00,48.4,46.2,30.05,NNW,328,0.0,0.0,92,0.02,-RA,,0.03,WeatherDisplay:10.37,2013-01-02 05:20:00,
2013-01-02 00:30:00,48.4,46.2,30.05,NNW,345,0.0,0.0,92,0.00,-RA,,0.03,WeatherDisplay:10.37,2013-01-02 05:30:00,
2013-01-02 00:40:00,48.2,46.0,30.04,NW,320,0.0,0.0,92,0.01,-RA,,0.04,WeatherDisplay:10.37,2013-01-02 05:40:00,
2013-01-02 00:50:00,48.2,46.0,30.04,NNE,20,0.0,0.0,92,0.00,-RA,,0.04,WeatherDisplay:10.37,2013-01-02 05:50:00,
2013-01-02 01:00:00,48.2,46.3,30.04,NNE,22,0.0,0.0,93,0.01,-RA,,0.05,WeatherDisplay:10.37,2013-01-02 06:00:00,
2013-01-02 01:10:00,48.0,45.8,30.03,NE,38,0.0,0.0,92,0.00,-RA,,0.05,WeatherDisplay:10.37,2013-01-02 06:10:00,
2013-01-02 01:20:00,48.0,46.1,30.03,North,359,0.0,1.0,93,0.01,-RA,,0.06,WeatherDisplay:10.37,2013-01-02 06:20:00,
2013-01-02 01:30:00,48.0,46.1,30.03,NE,51,0.0,0.0,93,0.01,-RA,,0.07,WeatherDisplay:10.37,2013-01-02 06:30:00,
2013-01-02 01:40:00,48.0,45.8,30.02,NNE,22,0.0,1.0,92,0.01,-RA,,0.08,WeatherDisplay:10.37,2013-01-02 06:40:00,
2013-01-02 01:50:00,48.0,46.1,30.04,NNW,341,1.0,1.0,93,0.00,-RA,,0.08,WeatherDisplay:10.37,2013-01-02 06:50:00,
2013-01-02 02:00:00,48.0,46.1,30.05,WNW,294,0.0,1.0,93,0.02,-RA,,0.10,WeatherDisplay:10.37,2013-01-02 07:00:00,
2013-01-02 02:10:00,47.8,45.9,30.04,ENE,57,0.0,1.0,93,0.02,-RA,,0.12,WeatherDisplay:10.37,2013-01-02 07:10:00,
2013-01-02 02:20:00,47.8,45.9,30.04,NNW,338,0.0,0.0,93,0.02,-RA,,0.15,WeatherDisplay:10.37,2013-01-02 07:20:00,
2013-01-02 02:30:00,47.7,45.7,30.03,ESE,111,0.0,2.0,93,0.02,-RA,,0.17,WeatherDisplay:10.37,2013-01-02 07:30:00,
2013-01-02 02:40:00,47.5,45.6,30.03,ESE,112,0.0,0.0,93,0.00,-RA,,0.17,WeatherDisplay:10.37,2013-01-02 07:40:00,
2013-01-02 02:50:00,47.3,45.4,30.03,East,92,0.0,1.0,93,0.00,-RA,,0.17,WeatherDisplay:10.37,2013-01-02 07:50:00,
2013-01-02 03:00:00,47.5,45.6,30.05,NE,51,0.0,1.0,93,0.01,-RA,,0.17,WeatherDisplay:10.37,2013-01-02 08:00:00,
2013-01-02 03:10:00,47.5,45.8,30.04,NE,49,0.0,2.0,94,0.00,-RA,,0.17,WeatherDisplay:10.37,2013-01-02 08:10:00,
2013-01-02 03:20:00,47.7,46.0,30.02,ENE,66,1.0,2.0,94,0.00,-RA,,0.17,WeatherDisplay:10.37,2013-01-02 08:20:00,
2013-01-02 03:30:00,47.7,46.0,30.05,North,350,0.0,2.0,94,0.00,-RA,,0.17,WeatherDisplay:10.37,2013-01-02 08:30:00,
2013-01-02 03:40:00,47.7,46.0,30.05,NE,47,0.0,1.0,94,0.00,-RA,,0.17,WeatherDisplay:10.37,2013-01-02 08:40:00,
2013-01-02 03:50:00,47.7,46.0,30.04,NNE,19,1.0,1.0,94,0.00,-RA,,0.17,WeatherDisplay:10.37,2013-01-02 08:50:00,
2013-01-02 04:00:00,47.8,46.2,30.04,North,8,0.0,1.0,94,0.00,-RA,,0.17,WeatherDisplay:10.37,2013-01-02 09:00:00,
2013-01-02 04:10:00,47.8,46.5,30.05,North,10,0.0,2.0,95,0.01,-RA,,0.19,WeatherDisplay:10.37,2013-01-02 09:10:00,
2013-01-02 04:20:00,47.7,46.3,30.04,NNE,17,1.0,3.0,95,0.00,-RA,,0.19,WeatherDisplay:10.37,2013-01-02 09:20:00,
2013-01-02 04:30:00,47.6,46.3,30.05,NNE,26,1.0,2.0,95,0.00,-RA,,0.19,WeatherDisplay:10.37,2013-01-02 09:30:00,
2013-01-02 04:40:00,47.1,45.8,30.05,North,3,2.0,3.0,95,0.00,-RA,,0.19,WeatherDisplay:10.37,2013-01-02 09:40:00,
2013-01-02 04:50:00,46.9,45.3,30.06,North,358,0.0,2.0,94,0.00,-RA,,0.19,WeatherDisplay:10.37,2013-01-02 09:50:00,
2013-01-02 05:00:00,46.7,45.1,30.06,NNE,29,2.0,3.0,94,0.01,-RA,,0.19,WeatherDisplay:10.37,2013-01-02 10:00:00,
2013-01-02 05:10:00,46.0,44.4,30.06,NNE,23,1.0,3.0,94,0.00,-RA,,0.19,WeatherDisplay:10.37,2013-01-02 10:10:00,
2013-01-02 05:20:00,45.3,43.4,30.07,NNE,16,1.0,5.0,93,0.00,-RA,,0.19,WeatherDisplay:10.37,2013-01-02 10:20:00,
2013-01-02 05:30:00,44.7,42.8,30.07,NE,37,2.0,4.0,93,0.00,-RA,,0.19,WeatherDisplay:10.37,2013-01-02 10:30:00,
2013-01-02 05:40:00,44.2,42.3,30.08,NNE,18,1.0,5.0,93,0.00,-RA,,0.19,WeatherDisplay:10.37,2013-01-02 10:40:00,
2013-01-02 05:50:00,43.9,42.0,30.09,North,357,1.0,3.0,93,0.00,-RA,,0.19,WeatherDisplay:10.37,2013-01-02 10:50:00,
2013-01-02 06:00:00,43.7,41.8,30.09,North,9,2.0,4.0,93,0.00,-RA,,0.19,WeatherDisplay:10.37,2013-01-02 11:00:00,
2013-01-02 06:10:00,43.3,41.5,30.10,North,9,1.0,2.0,93,0.00,-RA,,0.19,WeatherDisplay:10.37,2013-01-02 11:10:00,
2013-01-02 06:20:00,43.0,41.1,30.10,NNE,22,2.0,6.0,93,0.00,-RA,,0.19,WeatherDisplay:10.37,2013-01-02 11:20:00,
2013-01-02 06:30:00,42.8,40.9,30.11,NE,40,1.0,1.0,93,0.00,-RA,,0.19,WeatherDisplay:10.37,2013-01-02 11:30:00,
2013-01-02 06:40:00,42.6,40.7,30.10,ENE,64,1.0,5.0,93,0.00,-RA,,0.19,WeatherDisplay:10.37,2013-01-02 11:40:00,
2013-01-02 06:50:00,42.4,40.6,30.09,ENE,74,0.0,3.0,93,0.00,-RA,,0.19,WeatherDisplay:10.37,2013-01-02 11:50:00,
2013-01-02 07:00:00,42.4,40.6,30.10,ESE,103,2.0,2.0,93,0.00,-RA,,0.19,WeatherDisplay:10.37,2013-01-02 12:00:00,
2013-01-02 07:10:00,42.3,40.7,30.10,ESE,112,0.0,2.0,94,0.00,OVC,,0.19,WeatherDisplay:10.37,2013-01-02 12:10:00,
2013-01-02 07:20:00,42.3,40.7,30.10,ESE,112,0.0,0.0,94,0.00,OVC,,0.19,WeatherDisplay:10.37,2013-01-02 12:20:00,
2013-01-02 07:30:00,42.3,40.7,30.10,ESE,112,0.0,0.0,94,0.00,OVC,,0.19,WeatherDisplay:10.37,2013-01-02 12:30:00,
2013-01-02 07:40:00,42.3,40.7,30.10,ESE,112,0.0,0.0,94,0.00,OVC,,0.19,WeatherDisplay:10.37,2013-01-02 12:40:00,
2013-01-02 07:50:00,42.3,40.7,30.10,ESE,112,0.0,0.0,94,0.00,OVC,,0.19,WeatherDisplay:10.37,2013-01-02 12:50:00,
2013-01-02 08:00:00,42.3,40.7,30.10,ESE,112,0.0,0.0,94,0.00,OVC,,0.19,WeatherDisplay:10.37,2013-01-02 13:00:00,
2013-01-02 08:10:00,42.1,40.5,30.13,NNE,23,0.0,2.0,94,0.00,OVC,,0.19,WeatherDisplay:10.37,2013-01-02 13:10:00,
2013-01-02 08:20:00,42.1,40.5,30.14,NE,34,0.0,2.0,94,0.00,OVC,,0.19,WeatherDisplay:10.37,2013-01-02 13:20:00,
2013-01-02 08:30:00,42.1,40.5,30.14,NNE,17,1.0,2.0,94,0.00,OVC,,0.19,WeatherDisplay:10.37,2013-01-02 13:30:00,
2013-01-02 08:40:00,42.3,40.7,30.15,NNE,12,0.0,3.0,94,0.00,OVC,,0.19,WeatherDisplay:10.37,2013-01-02 13:40:00,
2013-01-02 08:50:00,42.4,40.8,30.15,North,9,2.0,5.0,94,0.00,OVC,,0.19,WeatherDisplay:10.37,2013-01-02 13:50:00,
2013-01-02 09:20:00,42.8,40.1,30.18,North,355,0.0,2.0,90,0.00,OVC,,0.19,WeatherDisplay:10.37,2013-01-02 14:20:00,
2013-01-02 09:30:00,42.6,39.9,30.18,NNE,28,1.0,2.0,90,0.00,OVC,,0.19,WeatherDisplay:10.37,2013-01-02 14:30:00,
2013-01-02 09:40:00,42.4,39.7,30.19,North,356,2.0,4.0,90,0.00,OVC,,0.19,WeatherDisplay:10.37,2013-01-02 14:40:00,
2013-01-02 09:50:00,42.8,39.2,30.18,North,11,1.0,3.0,87,0.00,OVC,,0.19,WeatherDisplay:10.37,2013-01-02 14:50:00,
2013-01-02 10:00:00,43.2,39.0,30.19,North,8,1.0,6.0,85,0.00,OVC,,0.19,WeatherDisplay:10.37,2013-01-02 15:00:00,
2013-01-02 10:10:00,43.3,39.1,30.20,NNE,13,1.0,3.0,85,0.00,BKN,,0.19,WeatherDisplay:10.37,2013-01-02 15:10:00,
2013-01-02 10:20:00,43.9,38.4,30.19,NE,43,3.0,4.0,81,0.00,BKN,,0.19,WeatherDisplay:10.37,2013-01-02 15:20:00,
2013-01-02 10:30:00,44.2,38.5,30.19,NNE,19,2.0,5.0,80,0.00,BKN,,0.19,WeatherDisplay:10.37,2013-01-02 15:30:00,
2013-01-02 10:40:00,43.3,36.6,30.19,NNW,339,3.0,7.0,77,0.00,BKN,,0.19,WeatherDisplay:10.37,2013-01-02 15:40:00,
2013-01-02 10:50:00,43.3,36.9,30.20,North,3,3.0,5.0,78,0.00,BKN,,0.19,WeatherDisplay:10.37,2013-01-02 15:50:00,
2013-01-02 11:00:00,43.5,36.8,30.19,NE,43,2.0,5.0,77,0.00,BKN,,0.19,WeatherDisplay:10.37,2013-01-02 16:00:00,
2013-01-02 11:10:00,43.9,37.2,30.21,NNW,346,1.0,5.0,77,0.00,SCT,,0.19,WeatherDisplay:10.37,2013-01-02 16:10:00,
2013-01-02 11:20:00,45.7,38.5,30.19,North,1,3.0,3.0,76,0.00,SCT,,0.19,WeatherDisplay:10.37,2013-01-02 16:20:00,
2013-01-02 11:30:00,44.8,37.0,30.19,North,358,3.0,6.0,74,0.00,SCT,,0.19,WeatherDisplay:10.37,2013-01-02 16:30:00,
2013-01-02 11:40:00,44.8,37.0,30.19,NNW,344,2.0,5.0,74,0.00,SCT,,0.19,WeatherDisplay:10.37,2013-01-02 16:40:00,
2013-01-02 11:50:00,44.6,37.2,30.19,North,351,1.0,3.0,75,0.00,SCT,,0.19,WeatherDisplay:10.37,2013-01-02 16:50:00,
2013-01-02 12:00:00,48.0,41.8,30.19,North,358,1.0,3.0,79,0.00,SCT,,0.19,WeatherDisplay:10.37,2013-01-02 17:00:00,
2013-01-02 12:10:00,49.5,38.2,30.18,North,7,3.0,5.0,65,0.00,SCT,,0.19,WeatherDisplay:10.37,2013-01-02 17:10:00,
2013-01-02 12:20:00,49.6,38.3,30.17,NNW,340,3.0,5.0,65,0.00,SCT,,0.19,WeatherDisplay:10.37,2013-01-02 17:20:00,
2013-01-02 12:30:00,49.6,38.3,30.17,NNW,338,3.0,3.0,65,0.00,SCT,,0.19,WeatherDisplay:10.37,2013-01-02 17:30:00,
2013-01-02 12:40:00,49.6,38.3,30.17,NNW,338,3.0,3.0,65,0.00,SCT,,0.19,WeatherDisplay:10.37,2013-01-02 17:40:00,
2013-01-02 12:50:00,49.6,38.3,30.17,NNW,338,3.0,3.0,65,0.00,SCT,,0.19,WeatherDisplay:10.37,2013-01-02 17:50:00,
2013-01-02 13:00:00,49.6,38.3,30.17,NNW,338,3.0,3.0,65,0.00,SCT,,0.19,WeatherDisplay:10.37,2013-01-02 18:00:00,
2013-01-02 13:10:00,47.3,36.5,30.16,NE,45,2.0,3.0,66,0.00,SCT,,0.19,WeatherDisplay:10.37,2013-01-02 18:10:00,
2013-01-02 13:20:00,47.3,36.5,30.16,NE,45,2.0,3.0,66,0.00,SCT,,0.19,WeatherDisplay:10.37,2013-01-02 18:20:00,
2013-01-02 13:30:00,47.3,36.5,30.16,NE,45,2.0,3.0,66,0.00,SCT,,0.19,WeatherDisplay:10.37,2013-01-02 18:30:00,
2013-01-02 14:00:00,50.0,38.3,30.14,NE,42,1.0,2.0,64,0.00,SCT,,0.19,WeatherDisplay:10.37,2013-01-02 19:00:00,
2013-01-02 14:10:00,49.7,38.0,30.15,NNE,33,1.0,2.0,64,0.00,SCT,,0.19,WeatherDisplay:10.37,2013-01-02 19:10:00,
2013-01-02 14:30:00,48.6,36.9,30.15,NE,49,1.0,2.0,64,0.00,SCT,,0.19,WeatherDisplay:10.37,2013-01-02 19:30:00,
2013-01-02 14:40:00,48.8,36.7,30.16,NNE,17,1.0,4.0,63,0.00,SCT,,0.19,WeatherDisplay:10.37,2013-01-02 19:40:00,
2013-01-02 14:50:00,48.6,36.5,30.16,North,11,0.0,1.0,63,0.00,SCT,,0.19,WeatherDisplay:10.37,2013-01-02 19:50:00,
2013-01-02 15:00:00,48.5,36.5,30.16,ENE,67,1.0,3.0,63,0.00,SCT,,0.19,WeatherDisplay:10.37,2013-01-02 20:00:00,
2013-01-02 15:10:00,48.2,36.2,30.16,North,351,1.0,2.0,63,0.00,SCT,,0.19,WeatherDisplay:10.37,2013-01-02 20:10:00,
2013-01-02 15:40:00,48.2,36.6,30.17,ENE,61,1.0,2.0,64,0.00,SCT,,0.19,WeatherDisplay:10.37,2013-01-02 20:40:00,
2013-01-02 15:50:00,47.8,35.8,30.18,NNE,19,0.0,3.0,63,0.00,SCT,,0.19,WeatherDisplay:10.37,2013-01-02 20:50:00,